North Brooklin, Maine
Current Conditions -  °F | °C
As of 2:35 AM on Saturday 29 Nov 2014 (Local Time) from KBHB Reporting Station
Few Clouds Few Clouds  
Wind Chill: 18°   Ceiling: Unl
Heat Index: 18°   Visibility: 10mi
Dew Point: 16°   Wind: 3mph
Humidity: 93%   Direction: 300°WNW
Pressure: 30.18"   Gusts: NA
Location:  44.3032°N, 68.5727°W
Report Text: KBHB 290735Z AUTO 30003KT 10SM FEW050 M08/M09 A3018 RMK AO1
Loading
Personal Weather Stations






























Interactive Weather Map New forecast layout! Learn more

10-Day Weather Forecast

Advertisements
Track Severe Weather on mobile